Terminal Aerodrome Forecast
Issued by NWS

Home | Current Version | Previous Version | Text Only | Print | Product List | Glossary On
Versions: 1 2 3 4 5 6 7 8 9 10 11 12 13
000
FTUS45 KGGW 231122
TAFGDV
TAF
KGDV 231122Z 2312/2412 26008KT P6SM SCT150
     FM232100 27007KT P6SM SKC
     FM232200 27006KT P6SM FEW150
     FM240600 VRB04KT P6SM BKN060=

USA.gov is the U.S. government's official web portal to all federal, state and local government web resources and services.